Time;durP1;ratioP1;P1;durP2;ratioP2;P2;SDS_P1;SDS_P2;PMS_P1;PMS_P2;Temp;Humidity;BMP_temperature;BMP_pressure;BME280_temperature;BME280_humidity;BME280_pressure;Samples;Min_cycle;Max_cycle;Signal;HPM_P1;HPM_P2
2021/06/22 00:02:02;;;;;;;;;9.00;8.00;;;;;27.24;50.43;97669.25;4931545;27;102466;-84
2021/06/22 00:04:30;;;;;;;;;8.00;8.00;;;;;27.25;50.75;97661.72;4942959;28;102121;-83
2021/06/22 00:06:59;;;;;;;;;8.00;8.00;;;;;27.23;50.57;97667.63;4958245;27;102243;-83
2021/06/22 00:09:37;;;;;;;;;8.67;7.67;;;;;27.20;50.63;97659.94;4966280;28;103440;-83
2021/06/22 00:12:11;;;;;;;;;8.67;8.00;;;;;27.21;50.52;97661.59;4940117;28;102622;-84
2021/06/22 00:14:52;;;;;;;;;8.00;6.67;;;;;27.12;50.82;97646.09;4966785;28;102609;-84
2021/06/22 00:17:28;;;;;;;;;9.00;9.00;;;;;27.15;50.93;97657.38;4963074;28;102228;-82
2021/06/22 00:20:05;;;;;;;;;8.00;7.33;;;;;27.12;51.00;97658.00;4952682;28;108265;-83
2021/06/22 00:22:53;;;;;;;;;9.00;9.00;;;;;27.15;50.89;97662.09;4974002;27;103879;-83
2021/06/22 00:25:35;;;;;;;;;7.00;7.00;;;;;27.16;50.43;97658.97;4888580;28;104174;-83
2021/06/22 00:28:19;;;;;;;;;8.33;7.67;;;;;27.13;50.77;97662.44;4972543;28;102675;-83
2021/06/22 00:30:57;;;;;;;;;8.00;7.33;;;;;27.17;50.89;97665.34;4959866;28;107689;-83
2021/06/22 00:33:42;;;;;;;;;10.00;10.00;;;;;27.14;50.92;97666.84;4905219;27;102581;-83
2021/06/22 00:36:20;;;;;;;;;10.33;8.00;;;;;27.10;50.61;97660.31;4969989;28;102433;-83
2021/06/22 00:38:56;;;;;;;;;9.33;9.00;;;;;27.04;50.90;97645.81;4957090;28;102263;-84
2021/06/22 00:41:28;;;;;;;;;10.00;9.00;;;;;27.10;50.64;97654.78;4949480;28;109228;-84
2021/06/22 00:44:05;;;;;;;;;8.67;8.67;;;;;27.08;50.50;97659.81;4973212;28;102401;-83
2021/06/22 00:46:34;;;;;;;;;8.67;8.00;;;;;27.07;50.81;97656.22;4972217;28;102089;-83
2021/06/22 00:49:01;;;;;;;;;9.67;8.33;;;;;27.08;50.52;97651.50;4956270;28;102328;-84
2021/06/22 00:51:30;;;;;;;;;8.00;8.00;;;;;26.99;50.62;97637.66;4974692;28;103057;-83
2021/06/22 00:53:57;;;;;;;;;9.00;8.33;;;;;27.03;50.55;97640.56;4972180;28;102423;-83
2021/06/22 00:56:25;;;;;;;;;11.00;10.00;;;;;27.04;50.18;97645.81;4967260;27;103065;-84
2021/06/22 00:58:52;;;;;;;;;11.67;9.33;;;;;27.05;50.83;97658.53;4975283;27;102563;-83
2021/06/22 01:01:20;;;;;;;;;7.67;7.67;;;;;27.03;50.78;97652.50;4957046;28;103354;-83
2021/06/22 01:03:47;;;;;;;;;11.00;9.33;;;;;27.02;50.47;97655.59;4939703;28;101805;-83
2021/06/22 01:06:15;;;;;;;;;10.33;9.00;;;;;26.98;50.51;97640.75;4950314;28;103843;-83
2021/06/22 01:08:42;;;;;;;;;8.67;8.67;;;;;27.02;50.35;97650.03;4947722;28;102437;-83
2021/06/22 01:11:11;;;;;;;;;11.00;8.33;;;;;26.94;50.45;97640.59;4990410;27;103049;-83
2021/06/22 01:13:47;;;;;;;;;12.00;9.67;;;;;26.92;50.10;97639.31;4961983;28;102010;-83
2021/06/22 01:16:29;;;;;;;;;8.00;8.00;;;;;26.96;50.39;97646.66;4974469;28;103663;-84
2021/06/22 01:19:08;;;;;;;;;9.00;8.00;;;;;26.95;50.32;97646.97;4897944;28;102421;-83
2021/06/22 01:21:42;;;;;;;;;10.67;9.33;;;;;26.99;50.54;97659.03;4946519;28;102677;-83
2021/06/22 01:24:23;;;;;;;;;10.33;10.00;;;;;26.94;50.41;97662.81;4963437;28;102230;-83
2021/06/22 01:26:59;;;;;;;;;9.67;9.00;;;;;26.92;50.08;97654.00;4957992;28;102595;-83
2021/06/22 01:29:38;;;;;;;;;11.00;10.00;;;;;26.90;50.56;97639.63;4901162;28;103463;-83
2021/06/22 01:32:09;;;;;;;;;7.33;7.33;;;;;26.98;50.19;97651.84;4957200;28;102646;-82
2021/06/22 01:34:42;;;;;;;;;8.67;8.00;;;;;26.95;50.07;97644.19;4960978;28;102206;-83
2021/06/22 01:37:19;;;;;;;;;8.00;8.00;;;;;26.97;50.71;97639.94;4951888;28;102494;-84
2021/06/22 01:39:54;;;;;;;;;12.00;10.00;;;;;26.93;50.25;97638.16;4952457;28;102510;-83
2021/06/22 01:42:26;;;;;;;;;10.00;10.00;;;;;26.90;50.33;97636.88;4968777;28;106268;-82
2021/06/22 01:45:08;;;;;;;;;8.33;8.00;;;;;26.83;50.17;97628.22;4889586;28;102343;-84
2021/06/22 01:47:43;;;;;;;;;10.33;9.33;;;;;26.87;50.06;97632.00;4980393;28;103856;-83
2021/06/22 01:50:16;;;;;;;;;10.00;9.00;;;;;26.93;50.24;97644.53;4966269;28;103819;-82
2021/06/22 01:52:43;;;;;;;;;11.67;10.33;;;;;26.93;50.38;97632.59;4996533;27;104297;-83
2021/06/22 01:57:58;;;;;;;;;10.33;9.00;;;;;26.90;50.81;97622.19;4965259;28;102579;-84
2021/06/22 02:00:26;;;;;;;;;10.33;9.33;;;;;26.92;50.53;97636.53;4963540;28;102425;-83
2021/06/22 02:02:53;;;;;;;;;10.00;9.00;;;;;26.91;50.66;97634.91;4963948;28;108518;-84
2021/06/22 02:05:21;;;;;;;;;10.67;8.67;;;;;26.89;50.37;97648.28;4971828;28;103431;-82
2021/06/22 02:07:49;;;;;;;;;11.00;10.00;;;;;26.85;50.30;97634.25;4984059;28;101969;-84
2021/06/22 02:10:17;;;;;;;;;11.00;10.00;;;;;26.84;50.31;97640.09;4979250;28;102245;-83
2021/06/22 02:12:44;;;;;;;;;8.67;8.33;;;;;26.80;50.18;97642.72;4937658;28;103050;-83
2021/06/22 02:15:14;;;;;;;;;8.67;8.33;;;;;26.90;50.49;97670.16;4993414;27;104839;-83
2021/06/22 02:17:42;;;;;;;;;11.67;10.00;;;;;26.87;50.46;97668.06;4980578;28;102110;-84
2021/06/22 02:20:11;;;;;;;;;12.33;9.67;;;;;26.82;50.38;97647.94;4954035;28;102860;-83
2021/06/22 02:22:39;;;;;;;;;9.67;9.00;;;;;26.76;50.32;97633.44;4963860;28;104044;-83
2021/06/22 02:25:09;;;;;;;;;11.67;11.00;;;;;26.85;49.85;97641.75;4964045;28;102453;-83
2021/06/22 02:27:38;;;;;;;;;10.00;9.00;;;;;26.75;50.10;97628.25;4966284;28;103382;-83
2021/06/22 02:30:18;;;;;;;;;9.67;9.00;;;;;26.83;50.31;97641.28;4970481;28;102259;-83
2021/06/22 02:32:46;;;;;;;;;9.00;9.00;;;;;26.82;50.24;97646.00;4946340;28;103362;-83
2021/06/22 02:35:13;;;;;;;;;11.33;10.67;;;;;26.79;50.02;97643.06;4966738;27;103835;-83
2021/06/22 02:37:41;;;;;;;;;12.00;10.33;;;;;26.82;50.16;97651.53;4989606;27;102901;-83
2021/06/22 02:40:09;;;;;;;;;11.00;9.67;;;;;26.76;49.87;97643.72;4979731;28;102596;-83
2021/06/22 02:42:37;;;;;;;;;10.67;10.00;;;;;26.82;50.08;97656.28;4980748;28;102315;-82
2021/06/22 02:45:05;;;;;;;;;12.00;10.00;;;;;26.81;50.47;97665.75;4969163;28;102161;-83
2021/06/22 02:47:32;;;;;;;;;9.67;9.33;;;;;26.82;50.54;97659.06;4989738;28;102379;-83
2021/06/22 02:50:00;;;;;;;;;12.33;10.67;;;;;26.73;50.17;97661.03;4972175;27;105687;-85
2021/06/22 02:52:27;;;;;;;;;10.67;10.00;;;;;26.71;49.96;97666.88;4961890;28;107857;-82
2021/06/22 02:54:56;;;;;;;;;15.00;11.67;;;;;26.76;50.15;97679.78;4984417;27;102200;-83
2021/06/22 02:57:24;;;;;;;;;10.00;10.00;;;;;26.74;49.87;97679.31;4966899;28;102316;-82
2021/06/22 02:59:51;;;;;;;;;10.33;9.67;;;;;26.76;50.38;97674.22;4963687;28;102657;-83
2021/06/22 03:02:18;;;;;;;;;11.00;9.00;;;;;26.74;50.38;97670.97;4974388;28;104102;-83
2021/06/22 03:04:46;;;;;;;;;10.67;8.67;;;;;26.75;49.93;97672.63;4951176;28;102292;-83
2021/06/22 03:07:14;;;;;;;;;9.67;9.00;;;;;26.76;50.10;97677.81;4959905;28;102971;-84
2021/06/22 03:09:42;;;;;;;;;12.67;12.00;;;;;26.66;49.88;97664.28;4977871;28;103113;-83
2021/06/22 03:12:09;;;;;;;;;11.67;11.00;;;;;26.72;50.08;97687.13;4950698;28;103251;-83
2021/06/22 03:14:37;;;;;;;;;12.00;10.67;;;;;26.66;50.18;97685.69;4961431;28;102516;-84
2021/06/22 03:17:05;;;;;;;;;12.67;11.00;;;;;26.67;50.06;97696.44;4951383;28;102744;-83
2021/06/22 03:19:33;;;;;;;;;10.33;9.67;;;;;26.62;49.72;97686.31;4969052;28;105144;-84
2021/06/22 03:22:00;;;;;;;;;12.00;10.67;;;;;26.68;49.96;97686.16;4965127;28;103080;-84
2021/06/22 03:24:28;;;;;;;;;12.00;11.33;;;;;26.65;50.03;97679.31;4982633;28;102478;-84
2021/06/22 03:26:56;;;;;;;;;11.67;11.67;;;;;26.66;50.26;97689.25;4967952;27;102627;-83
2021/06/22 03:29:24;;;;;;;;;12.33;10.00;;;;;26.60;49.96;97677.53;4983723;27;103567;-83
2021/06/22 03:31:53;;;;;;;;;18.00;13.00;;;;;26.59;50.07;97686.97;4964423;28;102853;-83
2021/06/22 03:34:21;;;;;;;;;11.33;9.67;;;;;26.64;49.98;97697.09;4944208;28;104106;-83
2021/06/22 03:36:50;;;;;;;;;7.67;7.67;;;;;26.63;49.94;97689.91;4966426;28;103425;-83
2021/06/22 03:39:18;;;;;;;;;11.67;11.00;;;;;26.63;50.13;97690.72;4947620;28;102536;-83
2021/06/22 03:41:45;;;;;;;;;11.00;10.33;;;;;26.60;49.89;97688.63;4970967;28;104067;-84
2021/06/22 03:44:13;;;;;;;;;8.33;7.67;;;;;26.61;50.27;97693.00;4978513;27;103416;-83
2021/06/22 03:46:42;;;;;;;;;12.67;11.33;;;;;26.56;49.73;97690.41;4963016;28;102196;-82
2021/06/22 03:49:10;;;;;;;;;10.67;10.67;;;;;26.52;49.77;97694.97;4949212;28;102471;-83
2021/06/22 03:51:37;;;;;;;;;10.67;10.67;;;;;26.56;49.39;97701.50;4950795;28;104744;-84
2021/06/22 03:54:05;;;;;;;;;11.00;10.00;;;;;26.57;49.51;97703.13;4957728;28;102090;-83
2021/06/22 03:56:32;;;;;;;;;12.33;11.00;;;;;26.53;49.75;97701.31;4955588;28;102966;-83
2021/06/22 03:59:00;;;;;;;;;11.67;11.00;;;;;26.60;49.96;97719.13;4923374;28;102484;-83
2021/06/22 04:01:28;;;;;;;;;11.33;11.33;;;;;26.57;49.93;97711.44;4970426;28;104155;-84
2021/06/22 04:03:56;;;;;;;;;9.33;9.33;;;;;26.54;49.94;97705.72;4934009;28;110440;-83
2021/06/22 04:06:24;;;;;;;;;9.33;9.33;;;;;26.60;49.63;97721.06;4970665;28;102267;-83
2021/06/22 04:08:51;;;;;;;;;10.00;9.00;;;;;26.56;49.76;97712.59;4955774;28;102133;-83
2021/06/22 04:11:19;;;;;;;;;11.33;10.33;;;;;26.60;49.78;97727.44;4961254;28;104277;-83
2021/06/22 04:13:49;;;;;;;;;12.33;10.67;;;;;26.56;49.25;97723.69;4958380;28;102902;-83
2021/06/22 04:16:18;;;;;;;;;10.33;10.00;;;;;26.53;49.40;97713.22;4971847;28;102780;-83
2021/06/22 04:18:45;;;;;;;;;11.00;10.00;;;;;26.60;49.85;97729.41;4981368;28;102035;-83
2021/06/22 04:21:13;;;;;;;;;10.33;10.00;;;;;26.58;49.78;97717.81;4960803;28;106164;-83
2021/06/22 04:23:40;;;;;;;;;11.00;9.33;;;;;26.61;49.77;97728.25;4944519;28;102298;-83
2021/06/22 04:26:09;;;;;;;;;11.33;10.00;;;;;26.59;49.50;97728.56;4985471;27;102452;-84
2021/06/22 04:28:36;;;;;;;;;11.00;11.00;;;;;26.61;49.59;97731.81;4975173;28;103178;-85
2021/06/22 04:31:04;;;;;;;;;12.00;11.67;;;;;26.55;49.13;97730.38;4967627;28;104116;-83
2021/06/22 04:33:31;;;;;;;;;11.33;11.33;;;;;26.49;49.23;97712.25;4965664;28;102151;-83
2021/06/22 04:35:59;;;;;;;;;12.67;10.67;;;;;26.48;49.25;97716.16;4972325;27;102296;-83
2021/06/22 04:38:26;;;;;;;;;10.33;10.33;;;;;26.58;49.27;97732.47;4970596;28;103543;-83
2021/06/22 04:40:54;;;;;;;;;12.33;11.00;;;;;26.59;49.37;97730.53;4961441;27;103292;-83
2021/06/22 04:43:22;;;;;;;;;12.00;11.00;;;;;26.57;49.47;97733.63;4972890;28;102502;-84
2021/06/22 04:45:50;;;;;;;;;13.00;11.67;;;;;26.47;49.41;97702.66;4954784;28;102103;-83
2021/06/22 04:48:17;;;;;;;;;12.00;12.00;;;;;26.54;49.28;97709.31;4954772;28;102010;-82
2021/06/22 04:50:45;;;;;;;;;11.67;11.00;;;;;26.58;49.74;97713.06;4939219;28;104634;-83
2021/06/22 04:53:13;;;;;;;;;11.00;11.00;;;;;26.57;49.71;97719.75;4961385;28;103558;-83
2021/06/22 04:55:41;;;;;;;;;10.33;9.00;;;;;26.49;49.99;97715.03;4945718;28;103720;-83
2021/06/22 04:58:10;;;;;;;;;11.00;9.67;;;;;26.58;49.69;97743.56;4955216;27;102721;-82
2021/06/22 05:00:38;;;;;;;;;9.00;7.67;;;;;26.55;49.76;97727.59;4928920;28;104186;-83
2021/06/22 05:03:06;;;;;;;;;12.00;10.00;;;;;26.56;49.31;97740.34;4956341;28;103217;-83
2021/06/22 05:05:35;;;;;;;;;12.00;11.00;;;;;26.48;49.04;97724.47;4950882;28;102247;-83
2021/06/22 05:08:02;;;;;;;;;11.00;10.33;;;;;26.53;49.29;97729.88;4957648;28;105038;-84
2021/06/22 05:10:29;;;;;;;;;12.00;10.33;;;;;26.52;48.85;97728.22;4957255;28;103088;-83
2021/06/22 05:12:56;;;;;;;;;9.33;9.33;;;;;26.59;49.13;97736.91;4946437;28;102447;-83
2021/06/22 05:15:25;;;;;;;;;11.67;10.00;;;;;26.54;48.87;97725.97;4962617;28;102141;-83
2021/06/22 05:17:53;;;;;;;;;10.00;9.33;;;;;26.53;48.96;97723.50;4987620;27;103973;-83
2021/06/22 05:20:20;;;;;;;;;11.33;11.33;;;;;26.51;48.91;97715.53;4962633;28;103406;-83
2021/06/22 05:22:48;;;;;;;;;12.00;11.33;;;;;26.50;48.82;97724.97;4960093;28;104940;-84
2021/06/22 05:25:16;;;;;;;;;7.67;7.00;;;;;26.57;48.95;97736.38;4957812;28;102587;-83
2021/06/22 05:27:45;;;;;;;;;10.00;10.00;;;;;26.62;48.85;97746.50;4978399;28;102616;-84
2021/06/22 05:30:13;;;;;;;;;9.67;8.67;;;;;26.53;48.66;97724.31;4973068;28;103096;-83
2021/06/22 05:32:41;;;;;;;;;10.33;10.33;;;;;26.57;48.54;97735.56;4949252;28;102123;-84
2021/06/22 05:35:11;;;;;;;;;10.00;10.00;;;;;26.63;48.40;97729.56;4967917;28;102622;-84
2021/06/22 05:37:39;;;;;;;;;12.00;10.67;;;;;26.64;48.87;97745.06;4969377;28;102397;-82
2021/06/22 05:40:09;;;;;;;;;8.00;8.00;;;;;26.64;48.61;97738.69;4960509;28;107764;-83
2021/06/22 05:42:38;;;;;;;;;10.00;10.00;;;;;26.56;48.62;97731.19;4964588;28;102470;-84
2021/06/22 05:45:06;;;;;;;;;8.67;8.67;;;;;26.56;48.56;97723.69;4958881;28;102610;-83
2021/06/22 05:47:33;;;;;;;;;10.00;10.00;;;;;26.66;48.83;97743.91;4962164;28;102424;-83
2021/06/22 05:50:02;;;;;;;;;13.33;11.67;;;;;26.61;48.69;97731.03;4965111;28;102358;-83
2021/06/22 05:52:31;;;;;;;;;9.33;9.33;;;;;26.64;48.83;97730.38;4966960;28;103188;-82
2021/06/22 05:54:58;;;;;;;;;10.00;10.00;;;;;26.67;48.76;97729.72;4956475;28;103567;-82
2021/06/22 05:57:26;;;;;;;;;9.00;7.67;;;;;26.60;48.65;97719.13;4962952;28;102677;-82
2021/06/22 05:59:53;;;;;;;;;11.33;11.33;;;;;26.60;48.70;97721.91;4958363;28;104093;-81
2021/06/22 06:02:21;;;;;;;;;10.33;10.33;;;;;26.64;49.06;97727.59;4934621;28;104011;-82
2021/06/22 06:04:48;;;;;;;;;9.67;9.67;;;;;26.56;49.27;97711.78;4975942;28;102306;-84
2021/06/22 06:07:16;;;;;;;;;9.00;9.00;;;;;26.68;49.19;97724.97;4971744;28;102525;-83
2021/06/22 06:09:46;;;;;;;;;10.00;9.33;;;;;26.68;48.99;97736.91;4970843;28;104318;-82
2021/06/22 06:12:13;;;;;;;;;9.00;8.33;;;;;26.59;49.08;97725.81;4970681;28;102158;-82
2021/06/22 06:14:40;;;;;;;;;12.00;10.33;;;;;26.68;49.33;97739.66;4965010;28;103817;-83
2021/06/22 06:17:07;;;;;;;;;11.33;11.33;;;;;26.68;49.31;97738.84;4977756;28;102612;-83
2021/06/22 06:19:35;;;;;;;;;10.67;9.00;;;;;26.71;49.53;97743.72;4943994;28;103273;-83
2021/06/22 06:22:02;;;;;;;;;11.00;10.67;;;;;26.69;49.72;97732.97;4952939;28;102561;-83
2021/06/22 06:24:30;;;;;;;;;11.33;9.33;;;;;26.67;49.53;97726.13;4951973;28;103563;-83
2021/06/22 06:27:03;;;;;;;;;11.00;9.00;;;;;26.72;49.64;97742.59;4952908;28;102343;-83
2021/06/22 06:32:20;;;;;;;;;11.33;11.33;;;;;26.73;49.53;97752.56;4897987;27;102489;-83
2021/06/22 06:34:47;;;;;;;;;12.67;12.33;;;;;26.67;49.89;97739.97;4964829;28;102450;-83
2021/06/22 06:37:14;;;;;;;;;11.00;10.33;;;;;26.66;49.87;97735.59;4961443;28;102108;-83
2021/06/22 06:39:42;;;;;;;;;14.00;11.33;;;;;26.71;49.77;97749.28;4943776;28;103740;-84
2021/06/22 06:42:11;;;;;;;;;10.33;9.67;;;;;26.69;49.83;97757.13;4962106;28;103417;-85
2021/06/22 06:44:39;;;;;;;;;10.67;10.33;;;;;26.71;49.75;97758.41;4952472;28;102137;-82
2021/06/22 06:47:06;;;;;;;;;9.00;9.00;;;;;26.73;49.57;97767.25;4974208;28;102478;-83
2021/06/22 06:49:35;;;;;;;;;11.00;10.00;;;;;26.71;49.49;97768.69;4939184;28;103079;-83
2021/06/22 06:52:06;;;;;;;;;10.67;9.67;;;;;26.78;49.29;97777.34;4925282;28;103302;-82
2021/06/22 06:54:33;;;;;;;;;12.33;11.00;;;;;26.75;49.72;97776.03;4916230;28;102538;-82
2021/06/22 06:57:01;;;;;;;;;10.33;10.00;;;;;26.79;49.64;97779.00;4946932;28;102447;-83
2021/06/22 06:59:28;;;;;;;;;9.33;9.33;;;;;26.72;49.32;97764.78;4956413;28;103750;-83
2021/06/22 07:01:55;;;;;;;;;11.00;9.33;;;;;26.74;49.31;97765.28;4943239;27;109607;-83
2021/06/22 07:04:23;;;;;;;;;14.00;12.67;;;;;26.73;49.43;97778.34;4938635;28;102129;-83
2021/06/22 07:06:50;;;;;;;;;10.67;9.67;;;;;26.78;49.38;97782.91;4948701;28;102198;-83
2021/06/22 07:09:18;;;;;;;;;9.00;9.00;;;;;26.79;49.27;97782.59;4946259;28;104159;-82
2021/06/22 07:11:45;;;;;;;;;10.33;10.00;;;;;26.74;49.51;97768.06;4941475;28;103598;-83
2021/06/22 07:14:14;;;;;;;;;11.67;11.00;;;;;26.82;49.16;97798.56;4938686;28;102752;-83
2021/06/22 07:16:47;;;;;;;;;13.00;10.33;;;;;26.85;49.44;97800.72;4963459;28;102455;-82
2021/06/22 07:19:15;;;;;;;;;9.67;8.00;;;;;26.84;49.42;97801.81;4944922;28;110646;-82
2021/06/22 07:21:42;;;;;;;;;9.33;9.33;;;;;26.88;49.65;97805.59;4949045;28;101987;-84
2021/06/22 07:24:09;;;;;;;;;10.67;10.33;;;;;26.88;49.26;97802.03;4984125;28;102148;-83
2021/06/22 07:26:37;;;;;;;;;13.00;9.00;;;;;26.90;49.25;97811.66;4940814;28;102042;-83
2021/06/22 07:29:04;;;;;;;;;9.00;8.33;;;;;26.79;49.43;97793.69;4937677;28;107775;-83
2021/06/22 07:31:32;;;;;;;;;10.33;10.33;;;;;26.87;49.50;97812.31;4943834;28;102120;-83
2021/06/22 07:34:00;;;;;;;;;10.67;10.00;;;;;26.92;49.75;97811.34;4946648;28;104653;-83
2021/06/22 07:36:28;;;;;;;;;10.00;9.00;;;;;26.82;49.36;97797.75;4975211;28;102154;-83
2021/06/22 07:38:55;;;;;;;;;10.00;9.67;;;;;26.94;49.44;97820.97;4936067;28;103072;-83
2021/06/22 07:41:24;;;;;;;;;9.00;9.00;;;;;26.85;49.59;97819.28;4944118;28;101906;-84
2021/06/22 07:43:51;;;;;;;;;8.00;7.00;;;;;26.95;49.49;97830.09;4940253;28;102190;-84
2021/06/22 07:46:19;;;;;;;;;9.00;9.00;;;;;26.93;49.56;97844.28;4911637;28;102134;-83
2021/06/22 07:48:46;;;;;;;;;11.67;10.00;;;;;26.96;49.45;97851.97;4946172;28;104217;-84
2021/06/22 07:51:14;;;;;;;;;9.00;8.33;;;;;26.86;49.38;97843.97;4944827;28;102493;-83
2021/06/22 07:53:42;;;;;;;;;10.00;9.00;;;;;26.88;49.38;97854.75;4954698;28;102852;-83
2021/06/22 07:56:10;;;;;;;;;8.67;8.00;;;;;26.94;49.33;97872.84;4928881;28;102136;-83
2021/06/22 07:58:37;;;;;;;;;9.00;9.00;;;;;26.98;49.25;97882.97;4951286;28;104244;-83
2021/06/22 08:01:04;;;;;;;;;10.67;10.00;;;;;26.96;49.43;97881.69;4946816;28;102990;-83
2021/06/22 08:03:32;;;;;;;;;8.00;8.00;;;;;26.92;49.53;97892.63;4938621;28;102469;-83
2021/06/22 08:05:59;;;;;;;;;10.00;10.00;;;;;26.95;49.63;97899.47;4946683;28;107243;-83
2021/06/22 08:08:27;;;;;;;;;9.67;9.67;;;;;26.96;49.54;97903.88;4951287;28;103075;-83
2021/06/22 08:10:56;;;;;;;;;9.33;8.00;;;;;26.91;49.70;97896.53;4952071;28;102416;-82
2021/06/22 08:13:27;;;;;;;;;11.67;8.00;;;;;27.01;49.86;97906.50;4946208;28;102123;-82
2021/06/22 08:15:54;;;;;;;;;8.00;8.00;;;;;26.91;49.75;97890.16;4930125;28;101994;-83
2021/06/22 08:18:22;;;;;;;;;8.00;7.33;;;;;26.99;49.58;97903.22;4947392;28;103100;-83
2021/06/22 08:20:50;;;;;;;;;8.67;8.67;;;;;26.95;49.47;97903.06;4965367;28;102181;-83
2021/06/22 08:23:17;;;;;;;;;8.67;8.00;;;;;26.98;49.57;97907.97;4940038;28;102434;-83
2021/06/22 08:25:45;;;;;;;;;9.00;9.00;;;;;26.97;49.68;97911.88;4984226;28;102054;-83
2021/06/22 08:28:13;;;;;;;;;8.00;7.00;;;;;27.04;49.79;97911.41;4947720;28;108736;-83
2021/06/22 08:30:40;;;;;;;;;9.00;8.67;;;;;27.05;49.66;97918.59;4946838;28;101914;-83
2021/06/22 08:33:07;;;;;;;;;9.33;8.00;;;;;27.04;49.54;97905.84;4939495;28;102629;-83
2021/06/22 08:35:36;;;;;;;;;9.67;8.67;;;;;27.00;49.46;97894.59;4950930;28;102215;-83
2021/06/22 08:38:05;;;;;;;;;8.00;8.00;;;;;26.97;49.53;97888.88;4953364;28;103309;-84
2021/06/22 08:40:32;;;;;;;;;9.67;8.00;;;;;26.97;49.76;97883.34;4939979;28;102024;-83
2021/06/22 08:43:00;;;;;;;;;10.00;9.00;;;;;27.06;49.63;97898.03;4937005;28;102122;-84
2021/06/22 08:45:27;;;;;;;;;9.00;8.00;;;;;27.01;49.64;97884.31;4944453;28;102319;-83
2021/06/22 08:47:58;;;;;;;;;8.33;7.33;;;;;27.03;49.84;97888.38;4949499;28;103092;-82
2021/06/22 08:50:25;;;;;;;;;8.33;7.33;;;;;27.04;49.54;97883.66;4949269;28;102156;-83
2021/06/22 08:52:53;;;;;;;;;9.00;8.67;;;;;27.07;49.50;97885.75;4956646;28;102311;-83
2021/06/22 08:55:33;;;;;;;;;8.00;7.33;;;;;27.07;49.85;97866.34;4956066;28;102079;-83
2021/06/22 08:58:05;;;;;;;;;9.00;9.00;;;;;27.05;49.70;97860.31;4935079;28;105498;-83
2021/06/22 09:00:38;;;;;;;;;9.33;8.33;;;;;26.98;49.91;97840.53;4938729;28;102232;-83
2021/06/22 09:03:11;;;;;;;;;9.00;9.00;;;;;27.01;49.96;97840.72;4943146;28;102281;-83
2021/06/22 09:05:42;;;;;;;;;7.67;7.67;;;;;27.02;49.58;97834.00;4946980;28;102455;-83
2021/06/22 09:08:17;;;;;;;;;9.33;8.33;;;;;27.06;49.68;97836.97;4952709;28;104355;-83
2021/06/22 09:10:44;;;;;;;;;8.33;8.33;;;;;27.00;49.95;97836.31;4963861;28;101966;-83
2021/06/22 09:13:21;;;;;;;;;10.33;9.00;;;;;27.10;49.93;97845.47;4948619;28;103909;-83
2021/06/22 09:15:49;;;;;;;;;10.00;9.00;;;;;27.08;49.95;97831.91;4945080;28;102568;-84
2021/06/22 09:18:31;;;;;;;;;8.67;8.00;;;;;27.10;49.67;97820.47;4945265;28;103531;-83
2021/06/22 09:21:05;;;;;;;;;10.00;8.00;;;;;27.04;49.62;97808.72;4867787;28;102133;-83
2021/06/22 09:23:35;;;;;;;;;9.33;9.33;;;;;27.01;49.54;97803.84;4926575;28;102212;-83
2021/06/22 09:26:16;;;;;;;;;9.00;8.00;;;;;27.10;49.85;97829.63;4951640;28;102597;-82
2021/06/22 09:28:43;;;;;;;;;10.00;9.00;;;;;27.04;49.93;97815.09;4935948;28;108930;-83
2021/06/22 09:31:14;;;;;;;;;9.33;8.33;;;;;27.11;49.87;97834.00;4948179;28;102132;-83
2021/06/22 09:33:42;;;;;;;;;9.67;8.00;;;;;27.02;49.93;97814.59;4937866;28;102009;-84
2021/06/22 09:36:25;;;;;;;;;9.00;8.00;;;;;27.11;49.48;97830.44;4942963;28;102154;-83
2021/06/22 09:38:55;;;;;;;;;7.00;7.00;;;;;27.08;49.93;97818.03;4892171;28;108740;-84
2021/06/22 09:41:27;;;;;;;;;9.67;8.67;;;;;27.07;49.83;97822.75;4925473;28;102082;-83
2021/06/22 09:44:06;;;;;;;;;9.67;9.33;;;;;27.04;49.75;97839.25;4949994;27;102179;-83
2021/06/22 09:46:46;;;;;;;;;9.67;9.33;;;;;27.11;49.99;97867.31;4943224;28;102319;-83
2021/06/22 09:49:18;;;;;;;;;5.33;5.33;;;;;27.03;49.61;97871.72;4946951;28;107574;-83
2021/06/22 09:54:47;;;;;;;;;10.67;8.67;;;;;27.12;49.71;97899.47;4946189;28;102469;-83
2021/06/22 09:57:19;;;;;;;;;6.67;6.33;;;;;27.13;49.86;97897.53;4921192;28;102425;-82
2021/06/22 09:59:54;;;;;;;;;9.67;9.33;;;;;27.12;49.73;97893.94;4922150;28;108912;-83
2021/06/22 10:02:23;;;;;;;;;8.33;8.33;;;;;27.05;49.97;97883.34;4926686;28;103148;-82
2021/06/22 10:04:51;;;;;;;;;9.00;8.33;;;;;27.13;49.94;97892.78;4936950;28;102085;-83
2021/06/22 10:07:20;;;;;;;;;9.00;8.00;;;;;27.12;49.76;97891.16;4916481;28;103073;-84
2021/06/22 10:10:02;;;;;;;;;9.00;8.00;;;;;27.08;49.93;97879.06;4955903;28;103345;-84
2021/06/22 10:12:32;;;;;;;;;10.33;9.33;;;;;27.10;49.82;97870.44;4900070;28;102294;-83
2021/06/22 10:15:01;;;;;;;;;8.67;8.67;;;;;27.17;50.00;97887.41;4949648;28;101986;-83
2021/06/22 10:17:30;;;;;;;;;8.33;7.67;;;;;27.12;49.95;97882.00;4962840;28;102139;-83
2021/06/22 10:20:04;;;;;;;;;9.67;8.00;;;;;27.08;49.92;97873.53;4937390;28;103067;-83
2021/06/22 10:22:34;;;;;;;;;12.00;9.00;;;;;27.11;49.62;97866.53;4950277;28;102344;-83
2021/06/22 10:25:03;;;;;;;;;8.33;7.67;;;;;27.15;49.67;97878.59;4942769;28;102091;-83
2021/06/22 10:27:31;;;;;;;;;9.00;9.00;;;;;27.17;49.76;97895.72;4935136;28;102653;-84
2021/06/22 10:30:00;;;;;;;;;8.67;8.00;;;;;27.19;49.60;97904.56;4918742;28;103058;-83
2021/06/22 10:32:28;;;;;;;;;7.33;7.00;;;;;27.16;49.96;97907.97;4951413;28;102053;-82
2021/06/22 10:34:58;;;;;;;;;9.33;8.67;;;;;27.18;49.81;97905.69;4940887;28;102249;-83
2021/06/22 10:37:31;;;;;;;;;7.33;7.33;;;;;27.19;49.47;97913.72;4946795;28;102168;-82
2021/06/22 10:40:11;;;;;;;;;8.00;7.00;;;;;27.09;49.96;97883.50;4969663;28;103348;-83
2021/06/22 10:42:43;;;;;;;;;8.00;8.00;;;;;27.20;49.96;97897.88;4959333;28;101853;-83
2021/06/22 10:45:12;;;;;;;;;8.00;8.00;;;;;27.19;50.04;97891.50;4954958;28;101901;-84
2021/06/22 10:47:40;;;;;;;;;8.00;7.33;;;;;27.16;50.04;97886.59;4954882;28;109324;-83
2021/06/22 10:50:23;;;;;;;;;10.67;9.00;;;;;27.21;49.64;97888.38;4940902;28;102271;-84
2021/06/22 10:53:00;;;;;;;;;8.00;7.00;;;;;27.15;49.81;97873.88;4945049;28;104825;-84
2021/06/22 10:55:28;;;;;;;;;7.67;7.00;;;;;27.12;49.92;97860.63;4941772;28;102619;-83
2021/06/22 11:00:41;;;;;;;;;9.33;8.33;;;;;27.22;49.99;97879.75;4950328;28;104120;-81
2021/06/22 11:03:29;;;;;;;;;8.00;8.00;;;;;27.22;49.66;97874.19;4940558;28;102106;-83
2021/06/22 11:06:02;;;;;;;;;11.00;10.00;;;;;27.14;50.04;97861.13;4881938;28;102201;-83
2021/06/22 11:08:32;;;;;;;;;8.67;8.33;;;;;27.15;49.94;97862.78;4958346;28;102933;-83
2021/06/22 11:10:59;;;;;;;;;8.33;7.33;;;;;27.22;49.63;97871.41;4959726;28;103085;-83
2021/06/22 11:13:41;;;;;;;;;8.00;8.00;;;;;27.23;49.84;97873.06;4950244;28;101753;-83
2021/06/22 11:16:14;;;;;;;;;8.33;8.00;;;;;27.17;49.91;97857.69;4959410;27;102124;-82
2021/06/22 11:18:53;;;;;;;;;9.33;9.33;;;;;27.26;49.91;97868.78;4952510;28;102232;-83
2021/06/22 11:21:23;;;;;;;;;8.67;7.33;;;;;27.27;49.78;97867.66;4937413;28;107498;-84
2021/06/22 11:24:05;;;;;;;;;8.00;8.00;;;;;27.19;49.73;97849.88;4960453;28;102189;-83
2021/06/22 11:26:49;;;;;;;;;8.00;8.00;;;;;27.21;49.67;97850.34;4938965;28;102097;-83
2021/06/22 11:29:17;;;;;;;;;8.00;7.00;;;;;27.28;49.96;97853.44;4949015;28;102169;-83
2021/06/22 11:31:50;;;;;;;;;8.00;7.33;;;;;27.22;49.96;97843.66;4941250;28;106220;-83
2021/06/22 11:34:23;;;;;;;;;9.33;8.00;;;;;27.26;49.93;97847.41;4948385;28;102322;-83
2021/06/22 11:36:53;;;;;;;;;7.67;7.67;;;;;27.22;49.91;97832.53;4944287;28;102005;-84
2021/06/22 11:39:27;;;;;;;;;9.33;8.00;;;;;27.31;49.71;97846.41;4942091;28;102146;-83
2021/06/22 11:42:09;;;;;;;;;7.33;7.00;;;;;27.31;49.56;97847.25;4965706;28;104516;-83
2021/06/22 11:44:48;;;;;;;;;9.00;9.00;;;;;27.24;49.62;97815.56;4940138;28;102069;-83